Time;durP1;ratioP1;P1;durP2;ratioP2;P2;SDS_P1;SDS_P2;PMS_P1;PMS_P2;Temp;Humidity;BMP_temperature;BMP_pressure;BME280_temperature;BME280_humidity;BME280_pressure;Samples;Min_cycle;Max_cycle;Signal;HPM_P1;HPM_P2
2023/08/01 00:00:10;;;;;;;5.78;2.33;;;;;;;;;;5061817;28;20048;-74
2023/08/01 00:02:43;;;;;;;3.63;2.45;;;;;;;;;;5062323;28;20478;-75
2023/08/01 00:05:15;;;;;;;4.85;2.65;;;;;;;;;;5061828;28;20048;-75
2023/08/01 00:07:45;;;;;;;4.15;2.67;;;;;;;;;;5061868;28;20052;-73
2023/08/01 00:10:16;;;;;;;3.72;2.63;;;;;;;;;;5062242;28;20047;-73
2023/08/01 00:12:46;;;;;;;5.00;2.83;;;;;;;;;;5062222;28;20443;-74
2023/08/01 00:15:17;;;;;;;5.78;2.70;;;;;;;;;;5062279;28;20051;-74
2023/08/01 00:17:48;;;;;;;4.47;2.67;;;;;;;;;;5061859;28;20037;-74
2023/08/01 00:20:19;;;;;;;5.82;2.40;;;;;;;;;;5062073;28;20697;-73
2023/08/01 00:22:50;;;;;;;4.28;2.75;;;;;;;;;;5061016;28;20048;-72
2023/08/01 00:25:20;;;;;;;5.03;2.63;;;;;;;;;;5062477;28;20048;-74
2023/08/01 00:27:52;;;;;;;4.25;2.60;;;;;;;;;;5041794;28;20053;-72
2023/08/01 00:30:22;;;;;;;3.80;2.75;;;;;;;;;;5039689;28;20072;-72
2023/08/01 00:32:52;;;;;;;5.22;2.35;;;;;;;;;;5041158;28;20522;-73
2023/08/01 00:35:24;;;;;;;4.55;2.72;;;;;;;;;;5039057;28;20407;-73
2023/08/01 00:37:54;;;;;;;4.38;2.67;;;;;;;;;;5039942;28;20433;-73
2023/08/01 00:40:31;;;;;;;8.27;2.80;;;;;;;;;;5041562;28;20487;-73
2023/08/01 00:43:01;;;;;;;4.45;2.65;;;;;;;;;;5041499;28;20495;-73
2023/08/01 00:45:33;;;;;;;5.18;2.65;;;;;;;;;;5040129;28;20669;-73
2023/08/01 00:48:04;;;;;;;3.45;2.63;;;;;;;;;;5041291;28;20068;-74
2023/08/01 00:50:36;;;;;;;5.43;2.55;;;;;;;;;;5041341;28;20056;-74
2023/08/01 00:53:07;;;;;;;4.88;2.80;;;;;;;;;;5041880;28;20403;-73
2023/08/01 00:55:37;;;;;;;7.60;3.20;;;;;;;;;;5042142;28;20561;-74
2023/08/01 00:58:08;;;;;;;6.78;3.05;;;;;;;;;;5041021;28;20052;-73
2023/08/01 01:00:39;;;;;;;6.53;2.83;;;;;;;;;;5041347;28;20590;-74
2023/08/01 01:03:10;;;;;;;4.45;2.40;;;;;;;;;;5041759;28;20049;-72
2023/08/01 01:05:49;;;;;;;3.72;2.47;;;;;;;;;;5042275;28;20045;-73
2023/08/01 01:08:22;;;;;;;4.95;2.47;;;;;;;;;;5043085;28;20053;-73
2023/08/01 01:10:52;;;;;;;5.95;2.53;;;;;;;;;;5042629;28;20167;-73
2023/08/01 01:13:22;;;;;;;3.65;2.75;;;;;;;;;;5043774;28;20053;-74
2023/08/01 01:15:53;;;;;;;4.88;3.05;;;;;;;;;;5044883;28;20095;-75
2023/08/01 01:18:23;;;;;;;4.20;2.83;;;;;;;;;;5044362;28;20057;-73
2023/08/01 01:20:55;;;;;;;4.10;2.85;;;;;;;;;;5045483;28;20068;-74
2023/08/01 01:23:27;;;;;;;4.53;3.00;;;;;;;;;;5043397;28;20059;-72
2023/08/01 01:25:58;;;;;;;5.07;2.95;;;;;;;;;;5043391;28;20526;-72
2023/08/01 01:28:30;;;;;;;6.55;3.25;;;;;;;;;;5045100;28;20517;-73
2023/08/01 01:31:02;;;;;;;4.95;2.95;;;;;;;;;;5044879;28;20484;-74
2023/08/01 01:33:34;;;;;;;5.10;2.78;;;;;;;;;;5044356;28;20041;-74
2023/08/01 01:36:04;;;;;;;6.15;3.00;;;;;;;;;;5042628;28;20079;-74
2023/08/01 01:38:36;;;;;;;4.60;2.83;;;;;;;;;;5042958;28;20170;-74
2023/08/01 01:41:07;;;;;;;8.88;3.22;;;;;;;;;;5044582;28;20041;-74
2023/08/01 01:43:38;;;;;;;3.90;2.70;;;;;;;;;;5042661;28;20057;-74
2023/08/01 01:46:08;;;;;;;5.28;3.30;;;;;;;;;;5042527;28;20623;-73
2023/08/01 01:48:39;;;;;;;4.47;2.95;;;;;;;;;;5043220;28;20055;-73
2023/08/01 01:51:10;;;;;;;4.88;2.80;;;;;;;;;;5042552;28;20053;-74
2023/08/01 01:53:41;;;;;;;4.90;3.03;;;;;;;;;;5044945;28;20508;-73
2023/08/01 01:56:11;;;;;;;5.22;3.05;;;;;;;;;;5043785;28;20554;-74
2023/08/01 01:58:41;;;;;;;4.07;3.00;;;;;;;;;;5042234;28;20060;-73
2023/08/01 02:01:12;;;;;;;4.80;3.28;;;;;;;;;;5042388;28;20064;-74
2023/08/01 02:03:43;;;;;;;3.95;2.72;;;;;;;;;;5042983;28;20614;-73
2023/08/01 02:06:14;;;;;;;3.35;2.47;;;;;;;;;;5042783;28;20391;-74
2023/08/01 02:08:46;;;;;;;7.28;3.25;;;;;;;;;;5044422;28;20053;-74
2023/08/01 02:11:16;;;;;;;6.90;3.33;;;;;;;;;;5044171;28;20052;-73
2023/08/01 02:13:46;;;;;;;4.10;2.58;;;;;;;;;;5043750;28;20040;-73
2023/08/01 02:16:16;;;;;;;6.20;3.17;;;;;;;;;;5044412;28;20056;-73
2023/08/01 02:18:46;;;;;;;8.73;3.45;;;;;;;;;;5043097;28;20049;-74
2023/08/01 02:21:17;;;;;;;4.63;3.15;;;;;;;;;;5042376;28;20057;-74
2023/08/01 02:23:48;;;;;;;4.60;2.58;;;;;;;;;;5041301;28;20052;-75
2023/08/01 02:26:18;;;;;;;6.55;3.05;;;;;;;;;;5042697;28;20045;-75
2023/08/01 02:28:48;;;;;;;4.68;3.20;;;;;;;;;;5043561;28;20045;-74
2023/08/01 02:31:18;;;;;;;3.65;2.80;;;;;;;;;;5043713;28;20041;-73
2023/08/01 02:33:50;;;;;;;3.78;2.65;;;;;;;;;;5042975;28;20052;-75
2023/08/01 02:36:20;;;;;;;4.20;2.75;;;;;;;;;;5042892;28;20064;-73
2023/08/01 02:38:50;;;;;;;5.35;2.78;;;;;;;;;;5042118;28;20412;-74
2023/08/01 02:41:21;;;;;;;4.93;2.75;;;;;;;;;;5043455;28;20041;-74
2023/08/01 02:43:52;;;;;;;7.50;2.92;;;;;;;;;;5044160;28;20044;-74
2023/08/01 02:46:23;;;;;;;4.15;2.80;;;;;;;;;;5043146;28;20346;-74
2023/08/01 02:48:54;;;;;;;8.20;3.17;;;;;;;;;;5041878;28;20123;-75
2023/08/01 02:51:25;;;;;;;6.28;2.88;;;;;;;;;;5043277;28;20052;-74
2023/08/01 02:53:55;;;;;;;3.67;2.92;;;;;;;;;;5043512;28;20052;-73
2023/08/01 02:56:27;;;;;;;5.20;2.95;;;;;;;;;;5041866;28;20049;-74
2023/08/01 02:58:58;;;;;;;4.13;2.92;;;;;;;;;;5043035;28;20067;-73
2023/08/01 03:01:28;;;;;;;6.03;3.30;;;;;;;;;;5041714;28;20068;-74
2023/08/01 03:03:58;;;;;;;4.80;3.05;;;;;;;;;;5041985;28;20542;-74
2023/08/01 03:06:29;;;;;;;4.97;2.80;;;;;;;;;;5043259;28;20052;-73
2023/08/01 03:09:01;;;;;;;6.47;3.25;;;;;;;;;;5040605;28;20053;-74
2023/08/01 03:11:32;;;;;;;5.43;3.28;;;;;;;;;;5042600;28;20049;-73
2023/08/01 03:14:04;;;;;;;4.93;2.90;;;;;;;;;;5041165;28;20408;-74
2023/08/01 03:16:34;;;;;;;5.32;3.47;;;;;;;;;;5042002;28;20511;-74
2023/08/01 03:19:04;;;;;;;6.55;3.33;;;;;;;;;;5042522;28;20467;-73
2023/08/01 03:21:35;;;;;;;6.65;3.10;;;;;;;;;;5042359;28;20060;-74
2023/08/01 03:24:08;;;;;;;5.70;3.35;;;;;;;;;;5042151;28;20546;-73
2023/08/01 03:26:39;;;;;;;4.70;3.08;;;;;;;;;;5024940;28;20049;-74
2023/08/01 03:29:11;;;;;;;7.75;3.40;;;;;;;;;;5042721;28;20082;-74
2023/08/01 03:31:42;;;;;;;7.63;3.72;;;;;;;;;;5042790;28;20495;-74
2023/08/01 03:34:12;;;;;;;5.95;3.17;;;;;;;;;;5043017;28;20068;-73
2023/08/01 03:36:44;;;;;;;7.20;3.10;;;;;;;;;;5040449;28;20068;-73
2023/08/01 03:39:14;;;;;;;6.40;3.30;;;;;;;;;;5042444;28;20052;-74
2023/08/01 03:41:45;;;;;;;5.25;3.20;;;;;;;;;;5042022;28;20049;-75
2023/08/01 03:44:16;;;;;;;4.05;2.85;;;;;;;;;;5040692;28;20067;-74
2023/08/01 03:46:47;;;;;;;5.88;3.47;;;;;;;;;;5042050;28;20053;-74
2023/08/01 03:49:18;;;;;;;6.30;3.50;;;;;;;;;;5042016;28;20049;-74
2023/08/01 03:51:50;;;;;;;4.05;3.10;;;;;;;;;;5042471;28;20754;-73
2023/08/01 03:54:20;;;;;;;3.88;2.80;;;;;;;;;;5042324;28;20049;-74
2023/08/01 03:56:51;;;;;;;5.75;3.33;;;;;;;;;;5041963;28;20049;-74
2023/08/01 03:59:22;;;;;;;6.00;3.85;;;;;;;;;;5042106;28;20052;-75
2023/08/01 04:01:53;;;;;;;5.68;3.35;;;;;;;;;;5041077;28;20503;-74
2023/08/01 04:04:23;;;;;;;6.45;3.65;;;;;;;;;;5040724;28;20057;-74
2023/08/01 04:06:54;;;;;;;4.97;3.10;;;;;;;;;;5040335;28;20049;-72
2023/08/01 04:09:25;;;;;;;5.18;2.88;;;;;;;;;;5039945;28;20049;-74
2023/08/01 04:11:56;;;;;;;4.78;2.88;;;;;;;;;;5040000;28;20041;-74
2023/08/01 04:14:26;;;;;;;4.90;3.05;;;;;;;;;;5042061;28;20052;-74
2023/08/01 04:16:56;;;;;;;4.88;3.10;;;;;;;;;;5041648;28;20049;-74
2023/08/01 04:19:27;;;;;;;4.20;3.15;;;;;;;;;;5041538;28;20059;-74
2023/08/01 04:21:59;;;;;;;5.15;3.15;;;;;;;;;;5040106;28;20056;-74
2023/08/01 04:24:30;;;;;;;6.38;3.70;;;;;;;;;;5041058;28;20052;-74
2023/08/01 04:27:02;;;;;;;3.67;2.45;;;;;;;;;;5041768;28;20416;-74
2023/08/01 04:29:32;;;;;;;4.47;3.10;;;;;;;;;;5039999;28;20060;-74
2023/08/01 04:32:02;;;;;;;4.40;3.05;;;;;;;;;;5041766;28;20442;-74
2023/08/01 04:34:33;;;;;;;5.95;3.40;;;;;;;;;;5041572;28;20488;-74
2023/08/01 04:37:04;;;;;;;6.47;3.40;;;;;;;;;;5041464;28;20052;-73
2023/08/01 04:39:34;;;;;;;4.95;3.28;;;;;;;;;;5041890;28;20052;-73
2023/08/01 04:42:06;;;;;;;4.10;2.88;;;;;;;;;;5041116;28;20049;-75
2023/08/01 04:44:36;;;;;;;5.53;3.25;;;;;;;;;;5041927;28;20041;-74
2023/08/01 04:47:06;;;;;;;4.80;3.03;;;;;;;;;;5039709;28;20427;-74
2023/08/01 04:49:37;;;;;;;5.50;3.63;;;;;;;;;;5041436;28;20606;-74
2023/08/01 04:52:08;;;;;;;9.27;3.97;;;;;;;;;;5041864;28;20053;-74
2023/08/01 04:54:39;;;;;;;7.75;3.53;;;;;;;;;;5039985;28;20096;-74
2023/08/01 04:57:09;;;;;;;4.60;3.28;;;;;;;;;;5041896;28;20064;-74
2023/08/01 04:59:39;;;;;;;4.65;3.30;;;;;;;;;;5041728;28;20530;-72
2023/08/01 05:02:09;;;;;;;6.53;3.63;;;;;;;;;;5040981;28;20045;-72
2023/08/01 05:04:40;;;;;;;6.38;3.53;;;;;;;;;;5040809;28;20401;-72
2023/08/01 05:07:10;;;;;;;9.65;3.95;;;;;;;;;;5041328;28;20629;-74
2023/08/01 05:09:40;;;;;;;5.25;3.55;;;;;;;;;;5041308;28;20413;-73
2023/08/01 05:12:11;;;;;;;6.25;3.45;;;;;;;;;;5040819;28;20850;-73
2023/08/01 05:14:41;;;;;;;6.63;3.50;;;;;;;;;;5040785;28;20485;-72
2023/08/01 05:17:13;;;;;;;5.60;3.42;;;;;;;;;;5041304;28;20053;-73
2023/08/01 05:19:43;;;;;;;6.10;3.58;;;;;;;;;;5041469;28;20524;-74
2023/08/01 05:22:14;;;;;;;8.57;3.83;;;;;;;;;;5041313;28;20120;-74
2023/08/01 05:24:44;;;;;;;5.40;3.38;;;;;;;;;;5040848;28;20575;-74
2023/08/01 05:27:14;;;;;;;4.75;3.63;;;;;;;;;;5041962;28;20055;-74
2023/08/01 05:29:45;;;;;;;4.25;3.28;;;;;;;;;;5041924;28;20401;-74
2023/08/01 05:32:16;;;;;;;4.93;3.55;;;;;;;;;;5041659;28;20060;-73
2023/08/01 05:34:45;;;;;;;7.65;4.00;;;;;;;;;;5040935;28;20041;-72
2023/08/01 05:37:17;;;;;;;5.18;3.55;;;;;;;;;;5040487;28;20510;-74
2023/08/01 05:39:47;;;;;;;7.20;3.38;;;;;;;;;;5040655;28;20060;-73
2023/08/01 05:42:17;;;;;;;7.18;3.45;;;;;;;;;;5041182;28;20045;-73
2023/08/01 05:44:48;;;;;;;6.28;3.33;;;;;;;;;;5041087;28;20049;-72
2023/08/01 05:47:19;;;;;;;4.97;3.08;;;;;;;;;;5040829;28;20052;-73
2023/08/01 05:49:49;;;;;;;4.68;3.47;;;;;;;;;;5038763;28;20468;-73
2023/08/01 05:52:20;;;;;;;5.25;3.53;;;;;;;;;;5041671;28;20052;-73
2023/08/01 05:54:50;;;;;;;5.65;3.47;;;;;;;;;;5044490;28;20041;-73
2023/08/01 05:57:21;;;;;;;6.32;3.80;;;;;;;;;;5044549;28;20045;-73
2023/08/01 05:59:51;;;;;;;6.75;3.22;;;;;;;;;;5043531;28;20516;-74
2023/08/01 06:02:22;;;;;;;6.68;3.58;;;;;;;;;;5044444;28;20511;-74
2023/08/01 06:04:52;;;;;;;5.57;3.60;;;;;;;;;;5044157;28;20055;-73
2023/08/01 06:07:23;;;;;;;4.68;3.38;;;;;;;;;;5042886;28;20052;-72
2023/08/01 06:09:54;;;;;;;6.47;4.43;;;;;;;;;;5042635;28;20049;-73
2023/08/01 06:12:24;;;;;;;6.13;4.20;;;;;;;;;;5042595;28;20041;-73
2023/08/01 06:14:54;;;;;;;6.25;3.78;;;;;;;;;;5043638;28;20053;-74
2023/08/01 06:17:25;;;;;;;4.95;3.67;;;;;;;;;;5043963;28;20048;-74
2023/08/01 06:19:56;;;;;;;6.68;3.85;;;;;;;;;;5043972;28;20061;-73
2023/08/01 06:22:27;;;;;;;6.55;4.15;;;;;;;;;;5043842;28;20535;-73
2023/08/01 06:24:57;;;;;;;6.28;3.75;;;;;;;;;;5043952;28;20049;-73
2023/08/01 06:27:27;;;;;;;7.68;3.85;;;;;;;;;;5043180;28;20041;-72
2023/08/01 06:29:57;;;;;;;6.40;4.30;;;;;;;;;;5043677;28;21115;-74
2023/08/01 06:32:29;;;;;;;6.22;3.65;;;;;;;;;;5044153;28;20049;-73
2023/08/01 06:35:00;;;;;;;6.47;3.42;;;;;;;;;;5043983;28;20479;-73
2023/08/01 06:37:32;;;;;;;7.03;3.97;;;;;;;;;;5042238;28;20049;-74
2023/08/01 06:40:04;;;;;;;5.10;3.60;;;;;;;;;;5043043;28;20048;-73
2023/08/01 06:42:35;;;;;;;5.55;3.95;;;;;;;;;;5043655;28;20655;-73
2023/08/01 06:45:06;;;;;;;7.57;3.90;;;;;;;;;;5043621;28;20064;-72
2023/08/01 06:47:36;;;;;;;6.18;3.92;;;;;;;;;;5044014;28;20061;-73
2023/08/01 06:50:06;;;;;;;4.20;3.40;;;;;;;;;;5043346;28;20049;-73
2023/08/01 06:52:38;;;;;;;5.95;3.78;;;;;;;;;;5043552;28;20048;-72
2023/08/01 06:55:08;;;;;;;5.13;3.88;;;;;;;;;;5042969;28;20049;-74
2023/08/01 06:57:39;;;;;;;7.85;4.35;;;;;;;;;;5043133;28;20120;-73
2023/08/01 07:00:11;;;;;;;5.90;3.50;;;;;;;;;;5043656;28;20044;-73
2023/08/01 07:02:42;;;;;;;8.02;4.20;;;;;;;;;;5043067;28;20504;-73
2023/08/01 07:05:12;;;;;;;5.70;3.80;;;;;;;;;;5043024;28;20049;-74
2023/08/01 07:07:42;;;;;;;7.25;3.92;;;;;;;;;;5043228;28;20056;-73
2023/08/01 07:10:12;;;;;;;6.43;4.18;;;;;;;;;;5042864;28;20051;-74
2023/08/01 07:12:42;;;;;;;5.95;4.13;;;;;;;;;;5041063;28;20061;-74
2023/08/01 07:15:13;;;;;;;8.70;4.22;;;;;;;;;;5042348;28;20411;-73
2023/08/01 07:17:43;;;;;;;7.40;3.80;;;;;;;;;;5042789;28;20052;-72
2023/08/01 07:20:14;;;;;;;8.10;4.03;;;;;;;;;;5043461;28;20420;-73
2023/08/01 07:22:44;;;;;;;5.45;3.58;;;;;;;;;;5043327;28;20324;-73
2023/08/01 07:25:15;;;;;;;5.95;3.90;;;;;;;;;;5042877;28;20055;-74
2023/08/01 07:27:46;;;;;;;5.85;3.78;;;;;;;;;;5043009;28;20037;-73
2023/08/01 07:30:18;;;;;;;6.40;4.47;;;;;;;;;;5041998;28;20060;-74
2023/08/01 07:32:48;;;;;;;6.60;3.97;;;;;;;;;;5041993;28;20053;-72
2023/08/01 07:35:19;;;;;;;6.30;3.72;;;;;;;;;;5040441;28;20048;-74
2023/08/01 07:37:49;;;;;;;4.68;3.30;;;;;;;;;;5042005;28;20055;-74
2023/08/01 07:40:22;;;;;;;5.97;4.20;;;;;;;;;;5042711;28;20527;-75
2023/08/01 07:42:52;;;;;;;6.93;3.67;;;;;;;;;;5041828;28;20048;-74
2023/08/01 07:45:23;;;;;;;5.45;3.90;;;;;;;;;;5042347;28;20508;-73
2023/08/01 07:47:53;;;;;;;6.85;3.95;;;;;;;;;;5042096;28;20048;-74
2023/08/01 07:50:23;;;;;;;7.47;4.15;;;;;;;;;;5042394;28;20057;-73
2023/08/01 07:52:53;;;;;;;;;;;;;;;;;;5042384;28;20056;-72
2023/08/01 07:55:24;;;;;;;5.38;3.85;;;;;;;;;;5042253;28;20534;-73
2023/08/01 07:57:55;;;;;;;6.50;4.30;;;;;;;;;;5040966;28;20508;-72
2023/08/01 08:00:26;;;;;;;6.45;4.15;;;;;;;;;;5042046;28;20415;-72
2023/08/01 08:02:56;;;;;;;6.32;4.25;;;;;;;;;;5042149;28;20045;-72
2023/08/01 08:05:26;;;;;;;5.50;3.53;;;;;;;;;;5041505;28;20045;-71
2023/08/01 08:07:56;;;;;;;5.93;3.75;;;;;;;;;;5042458;28;20045;-74
2023/08/01 08:10:27;;;;;;;6.65;3.55;;;;;;;;;;5041981;28;20045;-71
2023/08/01 08:12:57;;;;;;;5.00;2.85;;;;;;;;;;5040081;28;20061;-73
2023/08/01 08:15:33;;;;;;;4.90;3.22;;;;;;;;;;5041562;28;20063;-73
2023/08/01 08:18:04;;;;;;;5.72;3.42;;;;;;;;;;5041278;28;20064;-73
2023/08/01 08:20:42;;;;;;;5.55;3.67;;;;;;;;;;5041421;28;20060;-73
2023/08/01 08:23:13;;;;;;;6.35;2.95;;;;;;;;;;5041232;28;20053;-73
2023/08/01 08:25:47;;;;;;;4.75;3.72;;;;;;;;;;5041415;28;20116;-74
2023/08/01 08:28:32;;;;;;;6.00;3.80;;;;;;;;;;5041312;28;20537;-73
2023/08/01 08:31:04;;;;;;;5.03;3.40;;;;;;;;;;5042288;28;20052;-73
2023/08/01 08:33:34;;;;;;;4.75;3.00;;;;;;;;;;5041433;28;20052;-72
2023/08/01 08:36:04;;;;;;;5.18;3.13;;;;;;;;;;5041387;28;20059;-73
2023/08/01 08:38:34;;;;;;;5.20;3.53;;;;;;;;;;5041040;28;20053;-74
2023/08/01 08:41:27;;;;;;;6.55;3.85;;;;;;;;;;5041686;28;20049;-74
2023/08/01 08:43:59;;;;;;;5.47;3.85;;;;;;;;;;5041321;28;20509;-75
2023/08/01 08:46:30;;;;;;;5.78;4.15;;;;;;;;;;5041887;28;20496;-72
2023/08/01 08:49:01;;;;;;;7.43;4.18;;;;;;;;;;5041404;28;20048;-73
2023/08/01 08:51:33;;;;;;;9.50;4.20;;;;;;;;;;5041502;28;20465;-75
2023/08/01 08:54:06;;;;;;;13.02;4.60;;;;;;;;;;5041242;28;20048;-73
2023/08/01 08:56:36;;;;;;;10.98;4.30;;;;;;;;;;5040859;28;20056;-73
2023/08/01 08:59:10;;;;;;;12.30;4.82;;;;;;;;;;5041276;28;20048;-74
2023/08/01 09:01:42;;;;;;;11.93;4.78;;;;;;;;;;5041001;28;20053;-73
2023/08/01 09:04:12;;;;;;;10.52;4.80;;;;;;;;;;5041213;28;20056;-73
2023/08/01 09:06:49;;;;;;;14.38;4.57;;;;;;;;;;5041450;28;20049;-73
2023/08/01 09:09:22;;;;;;;18.20;5.13;;;;;;;;;;5041497;28;20053;-72
2023/08/01 09:11:56;;;;;;;32.58;4.82;;;;;;;;;;5040569;28;20056;-73
2023/08/01 09:14:27;;;;;;;14.93;4.03;;;;;;;;;;5041256;28;20056;-73
2023/08/01 09:17:07;;;;;;;15.88;3.85;;;;;;;;;;5041373;28;20055;-72
2023/08/01 09:19:38;;;;;;;5.20;3.50;;;;;;;;;;5041316;28;20041;-73
2023/08/01 09:22:17;;;;;;;11.70;3.88;;;;;;;;;;5041299;28;20040;-74
2023/08/01 09:24:54;;;;;;;10.80;4.15;;;;;;;;;;5042028;28;20044;-73
2023/08/01 09:27:33;;;;;;;7.03;3.38;;;;;;;;;;5043045;28;20052;-72
2023/08/01 09:30:16;;;;;;;5.30;3.08;;;;;;;;;;5044631;28;20392;-71
2023/08/01 09:32:57;;;;;;;3.88;2.90;;;;;;;;;;5044296;28;20053;-72
2023/08/01 09:35:39;;;;;;;5.57;3.78;;;;;;;;;;5044995;28;20059;-72
2023/08/01 09:38:09;;;;;;;5.70;3.67;;;;;;;;;;5044256;28;20041;-72
2023/08/01 09:40:40;;;;;;;6.90;3.78;;;;;;;;;;5026957;28;20060;-72
2023/08/01 09:43:13;;;;;;;4.75;3.55;;;;;;;;;;5044050;28;20056;-72
2023/08/01 09:45:54;;;;;;;4.88;3.20;;;;;;;;;;5045041;28;20052;-73
2023/08/01 09:48:26;;;;;;;4.78;3.30;;;;;;;;;;5045073;28;20036;-73
2023/08/01 09:51:10;;;;;;;4.03;3.15;;;;;;;;;;5045093;28;20052;-75
2023/08/01 09:53:56;;;;;;;6.70;3.72;;;;;;;;;;5042711;28;20063;-72
2023/08/01 09:56:27;;;;;;;11.35;4.88;;;;;;;;;;5044566;28;20049;-74
2023/08/01 09:59:01;;;;;;;8.68;4.90;;;;;;;;;;5044455;28;20048;-80
2023/08/01 10:01:33;;;;;;;7.57;4.30;;;;;;;;;;5042359;28;20049;-74
2023/08/01 10:04:06;;;;;;;7.18;4.68;;;;;;;;;;5044006;28;20048;-74
2023/08/01 10:06:38;;;;;;;8.32;4.40;;;;;;;;;;5043124;28;20045;-74
2023/08/01 10:09:11;;;;;;;8.52;4.10;;;;;;;;;;5043866;28;20052;-75
2023/08/01 10:11:42;;;;;;;6.07;3.90;;;;;;;;;;5043560;28;20049;-72
2023/08/01 10:14:14;;;;;;;9.25;4.03;;;;;;;;;;5044140;28;20048;-73
2023/08/01 10:16:46;;;;;;;6.95;4.03;;;;;;;;;;5043916;28;20056;-74
2023/08/01 10:19:19;;;;;;;7.68;4.30;;;;;;;;;;5043812;28;20555;-73
2023/08/01 10:21:51;;;;;;;7.05;4.00;;;;;;;;;;5049106;28;20057;-73
2023/08/01 10:24:26;;;;;;;9.35;4.38;;;;;;;;;;5064137;28;20415;-74
2023/08/01 10:26:57;;;;;;;9.27;4.25;;;;;;;;;;5063509;28;20049;-73
2023/08/01 10:29:37;;;;;;;8.73;4.30;;;;;;;;;;5063214;28;20046;-75
2023/08/01 10:32:08;;;;;;;9.75;4.60;;;;;;;;;;5063323;28;20056;-75
2023/08/01 10:34:39;;;;;;;9.63;4.45;;;;;;;;;;5063718;28;20594;-75
2023/08/01 10:37:09;;;;;;;5.68;4.10;;;;;;;;;;5063779;28;20076;-73
2023/08/01 10:39:39;;;;;;;7.35;4.97;;;;;;;;;;5062650;28;20071;-73
2023/08/01 10:42:12;;;;;;;7.40;4.50;;;;;;;;;;5064260;28;20044;-74
2023/08/01 10:44:46;;;;;;;14.18;6.43;;;;;;;;;;5058524;28;20044;-74
2023/08/01 10:47:27;;;;;;;21.48;6.20;;;;;;;;;;5042976;28;20649;-73
2023/08/01 10:49:57;;;;;;;11.88;6.40;;;;;;;;;;5042593;28;20407;-73
2023/08/01 10:52:28;;;;;;;14.85;5.65;;;;;;;;;;5043377;28;20057;-72
2023/08/01 10:55:05;;;;;;;11.82;5.75;;;;;;;;;;5042808;28;20056;-73
2023/08/01 10:57:38;;;;;;;14.00;5.38;;;;;;;;;;5043195;28;20056;-77
2023/08/01 11:00:10;;;;;;;10.27;5.97;;;;;;;;;;5043228;28;20053;-74
2023/08/01 11:02:40;;;;;;;14.63;5.72;;;;;;;;;;5042555;28;20064;-75
2023/08/01 11:05:12;;;;;;;12.40;4.22;;;;;;;;;;5057453;28;20515;-77
2023/08/01 11:07:53;;;;;;;9.77;3.95;;;;;;;;;;5043002;28;20052;-78
2023/08/01 11:10:28;;;;;;;9.98;3.80;;;;;;;;;;5043373;28;20057;-74
2023/08/01 11:12:59;;;;;;;16.08;3.97;;;;;;;;;;5042634;28;20511;-74
2023/08/01 11:15:31;;;;;;;11.73;3.45;;;;;;;;;;5043054;28;20060;-73
2023/08/01 11:18:03;;;;;;;8.77;3.47;;;;;;;;;;5043603;28;20050;-74
2023/08/01 11:20:40;;;;;;;8.23;2.65;;;;;;;;;;5042684;28;20061;-73
2023/08/01 11:23:11;;;;;;;7.68;2.72;;;;;;;;;;5042115;28;20056;-75
2023/08/01 11:25:45;;;;;;;2.47;2.28;;;;;;;;;;5042474;28;20055;-74
2023/08/01 11:28:17;;;;;;;4.60;2.78;;;;;;;;;;5042503;28;20475;-78
2023/08/01 11:30:48;;;;;;;5.35;2.75;;;;;;;;;;5042761;28;20049;-74
2023/08/01 11:33:22;;;;;;;4.57;2.50;;;;;;;;;;5042301;28;20060;-73
2023/08/01 11:35:57;;;;;;;8.27;2.53;;;;;;;;;;5040826;28;20052;-73
2023/08/01 11:38:30;;;;;;;3.95;2.25;;;;;;;;;;5057144;28;20063;-73
2023/08/01 11:41:01;;;;;;;3.40;2.30;;;;;;;;;;5042696;28;20052;-74
2023/08/01 11:43:42;;;;;;;4.40;2.38;;;;;;;;;;5042832;28;20044;-73
2023/08/01 11:46:13;;;;;;;5.90;2.65;;;;;;;;;;5042485;28;20045;-73
2023/08/01 11:48:49;;;;;;;6.32;3.20;;;;;;;;;;5042776;28;20045;-75
2023/08/01 11:51:20;;;;;;;7.50;3.00;;;;;;;;;;5041892;28;20492;-76
2023/08/01 11:54:04;;;;;;;22.15;3.92;;;;;;;;;;5055758;28;20071;-72
2023/08/01 11:56:40;;;;;;;8.27;3.08;;;;;;;;;;5054519;28;20044;-72
2023/08/01 11:59:16;;;;;;;8.55;2.80;;;;;;;;;;5041983;28;20045;-71
2023/08/01 12:01:48;;;;;;;6.97;3.53;;;;;;;;;;5041781;28;20115;-71
2023/08/01 12:04:26;;;;;;;8.73;4.32;;;;;;;;;;5041858;28;20044;-71
2023/08/01 12:06:57;;;;;;;8.48;3.10;;;;;;;;;;5041913;28;20045;-71
2023/08/01 12:09:33;;;;;;;6.25;3.10;;;;;;;;;;5042145;28;20040;-72
2023/08/01 12:12:04;;;;;;;5.95;3.03;;;;;;;;;;5039993;28;20064;-72
2023/08/01 12:14:34;;;;;;;16.65;3.92;;;;;;;;;;5041989;28;20056;-71
2023/08/01 12:17:05;;;;;;;7.95;3.30;;;;;;;;;;5040434;28;20139;-71
2023/08/01 12:19:36;;;;;;;4.75;2.78;;;;;;;;;;5041722;28;20044;-73
2023/08/01 12:22:06;;;;;;;7.03;3.72;;;;;;;;;;5043269;28;20041;-71
2023/08/01 12:24:37;;;;;;;4.50;3.03;;;;;;;;;;5042194;28;20041;-75
2023/08/01 12:27:09;;;;;;;3.60;2.95;;;;;;;;;;5042031;28;20092;-76
2023/08/01 12:29:40;;;;;;;11.95;3.88;;;;;;;;;;5043105;28;20045;-73
2023/08/01 12:32:11;;;;;;;10.60;3.40;;;;;;;;;;5041861;28;20049;-73
2023/08/01 12:34:41;;;;;;;5.20;3.00;;;;;;;;;;5041779;28;20048;-73
2023/08/01 12:37:12;;;;;;;4.22;3.10;;;;;;;;;;5042451;28;20056;-73
2023/08/01 12:39:43;;;;;;;6.68;3.55;;;;;;;;;;5041907;28;20041;-73
2023/08/01 12:42:13;;;;;;;5.57;2.67;;;;;;;;;;5042179;28;20064;-74
2023/08/01 12:44:43;;;;;;;8.43;3.28;;;;;;;;;;5040222;28;20508;-74
2023/08/01 12:47:13;;;;;;;7.70;3.25;;;;;;;;;;5041020;28;20049;-73
2023/08/01 12:49:44;;;;;;;6.07;3.20;;;;;;;;;;5041256;28;20044;-73
2023/08/01 12:52:24;;;;;;;5.03;3.45;;;;;;;;;;5042132;28;20064;-74
2023/08/01 12:54:55;;;;;;;5.90;2.88;;;;;;;;;;5039060;28;20084;-73
2023/08/01 12:57:25;;;;;;;4.10;2.90;;;;;;;;;;5041933;28;20053;-74
2023/08/01 13:00:00;;;;;;;4.90;2.83;;;;;;;;;;5041370;28;20084;-73
2023/08/01 13:02:30;;;;;;;6.15;2.88;;;;;;;;;;5043882;28;20106;-73
2023/08/01 13:05:01;;;;;;;3.88;3.00;;;;;;;;;;5046162;28;20049;-74
2023/08/01 13:07:34;;;;;;;5.95;2.90;;;;;;;;;;5045941;28;20285;-76
2023/08/01 13:10:06;;;;;;;10.98;4.05;;;;;;;;;;5045107;28;20060;-73
2023/08/01 13:12:36;;;;;;;5.30;3.50;;;;;;;;;;5045719;28;20049;-74
2023/08/01 13:15:08;;;;;;;5.68;3.75;;;;;;;;;;5045079;28;20044;-74
2023/08/01 13:17:45;;;;;;;7.72;4.38;;;;;;;;;;5044832;28;20502;-74
2023/08/01 13:20:16;;;;;;;6.55;3.78;;;;;;;;;;5044906;28;20500;-74
2023/08/01 13:22:49;;;;;;;7.97;4.55;;;;;;;;;;5045677;28;20512;-74
2023/08/01 13:25:20;;;;;;;12.00;5.32;;;;;;;;;;5044915;28;20041;-73
2023/08/01 13:27:51;;;;;;;12.00;5.93;;;;;;;;;;5044570;28;20045;-74
2023/08/01 13:30:21;;;;;;;9.20;6.18;;;;;;;;;;5044943;28;20045;-74
2023/08/01 13:32:52;;;;;;;9.50;5.45;;;;;;;;;;5045777;28;20052;-73
2023/08/01 13:35:22;;;;;;;6.30;5.00;;;;;;;;;;5043898;28;20056;-77
2023/08/01 13:37:52;;;;;;;6.00;5.10;;;;;;;;;;5045201;28;20037;-74
2023/08/01 13:40:25;;;;;;;12.70;5.65;;;;;;;;;;5045276;28;20041;-74
2023/08/01 13:42:56;;;;;;;9.32;5.97;;;;;;;;;;5044300;28;20403;-73
2023/08/01 13:45:26;;;;;;;7.18;5.40;;;;;;;;;;5044679;28;20052;-74
2023/08/01 13:47:59;;;;;;;11.48;6.47;;;;;;;;;;5044971;28;20530;-73
2023/08/01 13:50:30;;;;;;;14.15;6.88;;;;;;;;;;5044546;28;20056;-74
2023/08/01 13:53:01;;;;;;;6.43;5.50;;;;;;;;;;5044690;28;20084;-74
2023/08/01 13:55:33;;;;;;;14.07;6.25;;;;;;;;;;5043118;28;20045;-74
2023/08/01 13:58:02;;;;;;;7.85;5.93;;;;;;;;;;5043529;28;20052;-74
2023/08/01 14:00:33;;;;;;;18.48;13.90;;;;;;;;;;5044584;28;20404;-74
2023/08/01 14:03:04;;;;;;;17.65;8.40;;;;;;;;;;5044858;28;20045;-74
2023/08/01 14:05:34;;;;;;;12.10;6.10;;;;;;;;;;5044526;28;20062;-74
2023/08/01 14:08:05;;;;;;;11.10;5.93;;;;;;;;;;5043061;28;20056;-74
2023/08/01 14:10:36;;;;;;;13.98;7.05;;;;;;;;;;5044072;28;20045;-78
2023/08/01 14:13:06;;;;;;;9.05;6.03;;;;;;;;;;5043996;28;20045;-74
2023/08/01 14:15:36;;;;;;;9.85;6.85;;;;;;;;;;5043810;28;20049;-75
2023/08/01 14:18:06;;;;;;;15.95;8.35;;;;;;;;;;5043914;28;20048;-74
2023/08/01 14:20:37;;;;;;;15.18;7.60;;;;;;;;;;5043776;28;20655;-75
2023/08/01 14:23:08;;;;;;;11.50;7.20;;;;;;;;;;5042587;28;20064;-74
2023/08/01 14:25:39;;;;;;;8.68;6.57;;;;;;;;;;5043801;28;20059;-74
2023/08/01 14:28:11;;;;;;;10.15;7.13;;;;;;;;;;5042680;28;20048;-74
2023/08/01 14:30:41;;;;;;;11.30;6.43;;;;;;;;;;5043725;28;20060;-74
2023/08/01 14:33:14;;;;;;;11.02;6.85;;;;;;;;;;5043665;28;20744;-74
2023/08/01 14:35:44;;;;;;;9.65;6.70;;;;;;;;;;5043596;28;20059;-75
2023/08/01 14:38:14;;;;;;;11.27;7.18;;;;;;;;;;5042957;28;20049;-74
2023/08/01 14:40:44;;;;;;;10.82;6.47;;;;;;;;;;5044107;28;20407;-74
2023/08/01 14:43:34;;;;;;;14.43;7.00;;;;;;;;;;5043874;28;20053;-75
2023/08/01 14:46:06;;;;;;;13.05;6.65;;;;;;;;;;5043713;28;20041;-74
2023/08/01 14:48:37;;;;;;;9.93;6.30;;;;;;;;;;5043484;28;20045;-77
2023/08/01 14:51:07;;;;;;;9.48;6.50;;;;;;;;;;5041695;28;20056;-74
2023/08/01 14:53:37;;;;;;;10.27;6.80;;;;;;;;;;5043359;28;20052;-75
2023/08/01 14:56:08;;;;;;;9.25;6.10;;;;;;;;;;5043066;28;20049;-74
2023/08/01 14:58:40;;;;;;;9.00;5.93;;;;;;;;;;5041014;28;20060;-75
2023/08/01 15:01:15;;;;;;;9.07;6.15;;;;;;;;;;5040517;28;20060;-74
2023/08/01 15:03:45;;;;;;;9.73;7.25;;;;;;;;;;5040615;28;20500;-74
2023/08/01 15:06:15;;;;;;;17.17;8.07;;;;;;;;;;5040411;28;20045;-74